createdAt,value
2022-09-18T00:00:53.241Z,86
2022-09-18T00:02:00.385Z,86
2022-09-18T00:03:07.614Z,86
2022-09-18T00:04:14.555Z,86
2022-09-18T00:05:21.096Z,86
2022-09-18T00:06:28.219Z,86
2022-09-18T00:07:35.298Z,86
2022-09-18T00:08:42.458Z,86
2022-09-18T00:09:49.533Z,86
2022-09-18T00:10:56.088Z,86
2022-09-18T00:12:03.212Z,87
2022-09-18T00:14:17.508Z,87
2022-09-18T00:15:24.524Z,87
2022-09-18T00:16:31.169Z,87
2022-09-18T00:17:38.251Z,87
2022-09-18T00:18:45.444Z,87
2022-09-18T00:19:53.041Z,87
2022-09-18T00:20:59.519Z,87
2022-09-18T00:22:06.120Z,87
2022-09-18T00:23:13.293Z,87
2022-09-18T00:24:20.327Z,87
2022-09-18T00:26:34.535Z,87
2022-09-18T00:27:41.115Z,87
2022-09-18T00:28:50.641Z,87
2022-09-18T00:29:55.327Z,87
2022-09-18T00:31:02.444Z,87
2022-09-18T00:32:09.051Z,88
2022-09-18T00:33:16.121Z,88
2022-09-18T00:34:23.286Z,88
2022-09-18T00:35:30.332Z,88
2022-09-18T00:36:37.472Z,88
2022-09-18T00:37:44.621Z,87
2022-09-18T00:38:51.172Z,87
2022-09-18T00:39:58.316Z,87
2022-09-18T00:42:12.479Z,87
2022-09-18T00:44:26.289Z,87
2022-09-18T00:45:33.272Z,87
2022-09-18T00:46:40.489Z,87
2022-09-18T00:47:47.466Z,87
2022-09-18T00:48:54.040Z,87
2022-09-18T00:50:01.221Z,87
2022-09-18T00:51:08.314Z,87
2022-09-18T00:52:15.351Z,87
2022-09-18T00:53:22.494Z,87
2022-09-18T00:54:29.086Z,87
2022-09-18T00:55:36.227Z,87
2022-09-18T00:56:43.289Z,87
2022-09-18T00:57:50.362Z,87
2022-09-18T00:58:57.473Z,87
2022-09-18T01:00:04.082Z,87
2022-09-18T01:01:11.270Z,87
2022-09-18T01:02:18.377Z,87
2022-09-18T01:03:25.430Z,87
2022-09-18T01:04:32.491Z,87
2022-09-18T01:05:39.097Z,87
2022-09-18T01:07:53.275Z,87
2022-09-18T01:10:07.514Z,87
2022-09-18T01:11:14.093Z,87
2022-09-18T01:12:21.321Z,87
2022-09-18T01:13:28.342Z,87
2022-09-18T01:14:35.421Z,87
2022-09-18T01:15:42.619Z,87
2022-09-18T01:16:49.108Z,87
2022-09-18T01:19:03.340Z,87
2022-09-18T01:20:11.993Z,87
2022-09-18T01:21:17.509Z,87
2022-09-18T01:22:24.092Z,87
2022-09-18T01:23:31.219Z,87
2022-09-18T01:24:38.366Z,87
2022-09-18T01:25:45.418Z,87
2022-09-18T01:26:52.569Z,87
2022-09-18T01:27:59.158Z,87
2022-09-18T01:29:06.233Z,87
2022-09-18T01:30:14.700Z,87
2022-09-18T01:31:20.503Z,87
2022-09-18T01:32:27.523Z,87
2022-09-18T01:33:34.156Z,87
2022-09-18T01:34:41.258Z,87
2022-09-18T01:35:48.354Z,87
2022-09-18T01:38:02.524Z,87
2022-09-18T01:39:09.160Z,87
2022-09-18T01:40:16.340Z,87
2022-09-18T01:41:24.180Z,87
2022-09-18T01:42:30.454Z,87
2022-09-18T01:43:37.539Z,87
2022-09-18T01:44:44.084Z,87
2022-09-18T01:45:51.248Z,87
2022-09-18T01:49:12.160Z,87
2022-09-18T01:50:19.193Z,87
2022-09-18T01:51:26.226Z,87
2022-09-18T01:52:33.333Z,88
2022-09-18T01:53:40.437Z,88
2022-09-18T01:54:47.172Z,88
2022-09-18T01:55:54.128Z,88
2022-09-18T01:57:01.263Z,88
2022-09-18T01:58:08.349Z,88
2022-09-18T01:59:15.499Z,88
2022-09-18T02:00:22.039Z,88
2022-09-18T02:01:29.320Z,88
2022-09-18T02:02:36.477Z,88
2022-09-18T02:03:43.355Z,88
2022-09-18T02:04:50.494Z,88
2022-09-18T02:05:57.081Z,88
2022-09-18T02:07:04.131Z,88
2022-09-18T02:08:11.232Z,88
2022-09-18T02:09:18.392Z,89
2022-09-18T02:10:25.457Z,89
2022-09-18T02:11:33.142Z,89
2022-09-18T02:12:39.148Z,89
2022-09-18T02:13:46.331Z,89
2022-09-18T02:14:53.408Z,89
2022-09-18T02:16:00.536Z,89
2022-09-18T02:17:07.066Z,89
2022-09-18T02:18:14.175Z,89
2022-09-18T02:19:21.339Z,89
2022-09-18T02:20:28.429Z,88
2022-09-18T02:21:35.473Z,88
2022-09-18T02:22:42.136Z,88
2022-09-18T02:23:49.215Z,88
2022-09-18T02:24:56.359Z,88
2022-09-18T02:26:03.426Z,88
2022-09-18T02:27:09.991Z,88
2022-09-18T02:28:17.164Z,88
2022-09-18T02:30:31.403Z,88
2022-09-18T02:31:38.515Z,88
2022-09-18T02:32:44.989Z,88
2022-09-18T02:33:52.101Z,88
2022-09-18T02:34:59.223Z,88
2022-09-18T02:36:06.290Z,88
2022-09-18T02:37:13.421Z,88
2022-09-18T02:38:20.527Z,87
2022-09-18T02:39:27.624Z,87
2022-09-18T02:40:34.253Z,87
2022-09-18T02:41:41.258Z,87
2022-09-18T02:42:48.513Z,87
2022-09-18T02:43:55.015Z,87
2022-09-18T02:45:02.063Z,87
2022-09-18T02:47:16.341Z,87
2022-09-18T02:48:23.531Z,87
2022-09-18T02:49:30.040Z,87
2022-09-18T02:51:44.194Z,87
2022-09-18T02:52:51.311Z,87
2022-09-18T02:53:58.459Z,87
2022-09-18T02:55:05.012Z,86
2022-09-18T02:56:12.109Z,86
2022-09-18T02:57:19.250Z,86
2022-09-18T02:58:26.382Z,86
2022-09-18T02:59:33.439Z,86
2022-09-18T03:00:40.041Z,86
2022-09-18T03:01:47.238Z,86
2022-09-18T03:02:54.293Z,86
2022-09-18T03:04:01.403Z,85
2022-09-18T03:05:08.425Z,85
2022-09-18T03:06:15.053Z,85
2022-09-18T03:08:29.253Z,85
2022-09-18T03:09:36.361Z,85
2022-09-18T03:11:50.018Z,85
2022-09-18T03:12:57.218Z,85
2022-09-18T03:14:04.241Z,85
2022-09-18T03:15:11.308Z,85
2022-09-18T03:16:18.551Z,85
2022-09-18T03:17:25.028Z,85
2022-09-18T03:18:32.368Z,85
2022-09-18T03:19:39.263Z,85
2022-09-18T03:20:46.407Z,85
2022-09-18T03:21:53.489Z,85
2022-09-18T03:23:00.115Z,85
2022-09-18T03:24:07.203Z,85
2022-09-18T03:25:14.217Z,85
2022-09-18T03:26:21.409Z,85
2022-09-18T03:27:28.526Z,85
2022-09-18T03:28:35.061Z,85
2022-09-18T03:29:43.800Z,85
2022-09-18T03:30:49.300Z,85
2022-09-18T03:31:56.454Z,85
2022-09-18T03:33:03.446Z,85
2022-09-18T03:34:10.102Z,85
2022-09-18T03:35:16.721Z,85
2022-09-18T03:36:24.285Z,85
2022-09-18T03:37:31.407Z,85
2022-09-18T03:38:38.485Z,85
2022-09-18T03:39:45.068Z,85
2022-09-18T03:40:52.194Z,85
2022-09-18T03:41:59.333Z,86
2022-09-18T03:43:06.421Z,86
2022-09-18T03:44:13.494Z,86
2022-09-18T03:45:20.113Z,86
2022-09-18T03:46:27.731Z,86
2022-09-18T03:47:36.338Z,86
2022-09-18T03:48:41.401Z,86
2022-09-18T03:49:47.971Z,86
2022-09-18T03:50:55.116Z,86
2022-09-18T03:53:09.405Z,86
2022-09-18T03:55:23.123Z,86
2022-09-18T03:56:30.128Z,86
2022-09-18T03:57:37.231Z,86
2022-09-18T03:58:44.396Z,86
2022-09-18T03:59:51.430Z,86
2022-09-18T04:00:58.039Z,86
2022-09-18T04:02:05.202Z,86
2022-09-18T04:04:19.370Z,86
2022-09-18T04:05:26.454Z,86
2022-09-18T04:06:33.026Z,86
2022-09-18T04:07:40.124Z,86
2022-09-18T04:08:47.242Z,86
2022-09-18T04:09:54.311Z,86
2022-09-18T04:11:01.459Z,87
2022-09-18T04:12:07.996Z,87
2022-09-18T04:13:15.218Z,87
2022-09-18T04:15:29.364Z,87
2022-09-18T04:16:36.591Z,87
2022-09-18T04:17:43.057Z,87
2022-09-18T04:18:50.954Z,87
2022-09-18T04:19:57.253Z,87
2022-09-18T04:21:04.334Z,87
2022-09-18T04:22:11.038Z,87
2022-09-18T04:23:18.044Z,87
2022-09-18T04:24:25.223Z,87
2022-09-18T04:25:32.228Z,87
2022-09-18T04:26:39.373Z,87
2022-09-18T04:27:46.472Z,87
2022-09-18T04:28:53.037Z,87
2022-09-18T04:30:00.289Z,87
2022-09-18T04:32:14.331Z,87
2022-09-18T04:34:28.054Z,88
2022-09-18T04:35:35.190Z,88
2022-09-18T04:36:42.286Z,88
2022-09-18T04:37:49.404Z,88
2022-09-18T04:38:56.453Z,88
2022-09-18T04:40:03.162Z,88
2022-09-18T04:41:10.172Z,88
2022-09-18T04:42:17.311Z,88
2022-09-18T04:43:24.389Z,88
2022-09-18T04:44:30.984Z,88
2022-09-18T04:45:38.008Z,88
2022-09-18T04:46:45.223Z,88
2022-09-18T04:47:52.295Z,88
2022-09-18T04:48:59.412Z,88
2022-09-18T04:50:06.026Z,88
2022-09-18T04:51:13.090Z,89
2022-09-18T04:52:20.207Z,89
2022-09-18T04:53:27.289Z,89
2022-09-18T04:54:34.427Z,89
2022-09-18T04:55:40.986Z,89
2022-09-18T04:56:48.197Z,89
2022-09-18T04:59:02.291Z,89
2022-09-18T05:00:09.415Z,89
2022-09-18T05:01:16.142Z,89
2022-09-18T05:02:23.156Z,89
2022-09-18T05:03:30.278Z,89
2022-09-18T05:04:37.321Z,89
2022-09-18T05:05:44.887Z,89
2022-09-18T05:06:51.009Z,89
2022-09-18T05:07:58.094Z,89
2022-09-18T05:09:05.201Z,89
2022-09-18T05:10:12.307Z,89
2022-09-18T05:11:19.489Z,90
2022-09-18T05:12:26.118Z,90
2022-09-18T05:13:33.172Z,90
2022-09-18T05:15:47.359Z,90
2022-09-18T05:16:54.436Z,90
2022-09-18T05:18:00.947Z,90
2022-09-18T05:19:08.091Z,90
2022-09-18T05:20:15.256Z,90
2022-09-18T05:21:22.322Z,90
2022-09-18T05:22:29.459Z,90
2022-09-18T05:23:35.965Z,90
2022-09-18T05:24:43.117Z,90
2022-09-18T05:25:50.262Z,90
2022-09-18T05:26:57.346Z,90
2022-09-18T05:28:04.446Z,90
2022-09-18T05:29:11.021Z,90
2022-09-18T05:30:18.122Z,90
2022-09-18T05:31:25.466Z,91
2022-09-18T05:32:32.325Z,91
2022-09-18T05:33:39.996Z,91
2022-09-18T05:34:46.021Z,91
2022-09-18T05:35:53.116Z,91
2022-09-18T05:37:00.262Z,91
2022-09-18T05:38:07.359Z,91
2022-09-18T05:39:17.432Z,91
2022-09-18T05:40:21.113Z,91
2022-09-18T05:41:28.251Z,91
2022-09-18T05:43:42.361Z,91
2022-09-18T05:44:49.477Z,91
2022-09-18T05:45:56.015Z,91
2022-09-18T05:47:03.191Z,92
2022-09-18T05:48:10.295Z,92
2022-09-18T05:49:17.406Z,92
2022-09-18T05:50:23.930Z,92
2022-09-18T05:51:31.077Z,92
2022-09-18T05:52:38.136Z,92
2022-09-18T05:53:45.258Z,92
2022-09-18T05:54:52.417Z,92
2022-09-18T05:57:06.144Z,92
2022-09-18T05:58:13.180Z,92
2022-09-18T05:59:20.291Z,92
2022-09-18T06:00:27.402Z,92
2022-09-18T06:02:41.291Z,92
2022-09-18T06:03:48.278Z,93
2022-09-18T06:04:55.294Z,93
2022-09-18T06:06:02.400Z,93
2022-09-18T06:07:08.945Z,93
2022-09-18T06:08:16.172Z,93
2022-09-18T06:09:23.179Z,93
2022-09-18T06:10:30.310Z,93
2022-09-18T06:11:37.394Z,93
2022-09-18T06:12:43.972Z,93
2022-09-18T06:13:51.238Z,93
2022-09-18T06:14:58.208Z,93
2022-09-18T06:16:05.368Z,93
2022-09-18T06:17:12.529Z,93
2022-09-18T06:18:19.018Z,93
2022-09-18T06:19:26.215Z,94
2022-09-18T06:20:33.170Z,94
2022-09-18T06:21:40.315Z,94
2022-09-18T06:22:47.441Z,94
2022-09-18T06:23:53.973Z,94
2022-09-18T06:25:01.181Z,94
2022-09-18T06:26:12.704Z,94
2022-09-18T06:27:15.307Z,94
2022-09-18T06:28:22.409Z,94
2022-09-18T06:30:36.154Z,94
2022-09-18T06:31:43.301Z,94
2022-09-18T06:32:50.327Z,94
2022-09-18T06:33:57.419Z,94
2022-09-18T06:35:03.980Z,94
2022-09-18T06:36:11.106Z,95
2022-09-18T06:38:25.326Z,95
2022-09-18T06:39:32.430Z,97
2022-09-18T06:40:39.054Z,97
2022-09-18T06:41:46.134Z,97
2022-09-18T06:42:53.242Z,98
2022-09-18T06:44:00.356Z,97
2022-09-18T06:45:07.386Z,98
2022-09-18T06:46:14.017Z,99
2022-09-18T06:47:21.131Z,99
2022-09-18T06:48:28.249Z,99
2022-09-18T06:49:35.320Z,99
2022-09-18T06:50:42.456Z,99
2022-09-18T06:51:49.037Z,99
2022-09-18T06:52:56.141Z,99
2022-09-18T06:54:03.405Z,99
2022-09-18T06:55:11.415Z,99
2022-09-18T06:56:16.972Z,99
2022-09-18T06:58:31.161Z,99
2022-09-18T06:59:38.277Z,99
2022-09-18T07:00:45.474Z,99
2022-09-18T07:01:52.040Z,99
2022-09-18T07:02:59.060Z,99
2022-09-18T07:04:07.295Z,99
2022-09-18T07:06:20.341Z,99
2022-09-18T07:07:26.965Z,99
2022-09-18T07:08:34.037Z,99
2022-09-18T07:09:41.137Z,99
2022-09-18T07:11:55.408Z,99
2022-09-18T07:13:02.451Z,99
2022-09-18T07:14:09.070Z,99
2022-09-18T07:15:16.187Z,99
2022-09-18T07:16:23.364Z,99
2022-09-18T07:17:30.393Z,99
2022-09-18T07:19:44.068Z,99
2022-09-18T07:20:51.180Z,99
2022-09-18T07:21:58.273Z,99
2022-09-18T07:23:05.376Z,99
2022-09-18T07:24:11.976Z,99
2022-09-18T07:25:19.051Z,99
2022-09-18T07:26:26.163Z,99
2022-09-18T07:27:33.300Z,99
2022-09-18T07:28:40.382Z,99
2022-09-18T07:29:46.984Z,99
2022-09-18T07:30:54.085Z,99
2022-09-18T07:32:01.709Z,99
2022-09-18T07:33:08.313Z,99
2022-09-18T07:34:15.420Z,99
2022-09-18T07:35:21.970Z,99
2022-09-18T07:36:30.155Z,99
2022-09-18T07:37:36.178Z,99
2022-09-18T07:38:43.341Z,99
2022-09-18T07:39:50.420Z,100
2022-09-18T07:40:57.012Z,99
2022-09-18T07:42:08.728Z,99
2022-09-18T07:43:11.190Z,99
2022-09-18T07:44:18.316Z,99
2022-09-18T07:45:25.407Z,99
2022-09-18T07:46:32.067Z,100
2022-09-18T07:47:39.115Z,100
2022-09-18T07:48:46.186Z,100
2022-09-18T07:49:53.337Z,100
2022-09-18T07:51:00.391Z,100
2022-09-18T07:52:07.040Z,100
2022-09-18T07:53:14.095Z,100
2022-09-18T07:54:21.261Z,100
2022-09-18T07:55:28.372Z,100
2022-09-18T07:56:34.919Z,100
2022-09-18T07:57:41.992Z,99
2022-09-18T07:58:50.812Z,100
2022-09-18T08:01:03.311Z,100
2022-09-18T08:02:10.093Z,100
2022-09-18T08:03:17.120Z,100
2022-09-18T08:04:24.104Z,100
2022-09-18T08:05:31.271Z,100
2022-09-18T08:06:38.365Z,100
2022-09-18T08:07:44.899Z,100
2022-09-18T08:09:59.214Z,100
2022-09-18T08:11:06.261Z,100
2022-09-18T08:12:13.540Z,100
2022-09-18T08:13:19.944Z,100
2022-09-18T08:14:28.934Z,100
2022-09-18T08:15:34.098Z,100
2022-09-18T08:16:41.322Z,100
2022-09-18T08:17:48.872Z,100
2022-09-18T08:18:54.964Z,100
2022-09-18T08:20:02.023Z,100
2022-09-18T08:21:10.825Z,100
2022-09-18T08:22:16.298Z,100
2022-09-18T08:23:23.390Z,100
2022-09-18T08:24:30.555Z,100
2022-09-18T08:25:37.110Z,100
2022-09-18T08:26:44.098Z,100
2022-09-18T08:28:58.440Z,100
2022-09-18T08:30:04.945Z,100
2022-09-18T08:31:12.215Z,100
2022-09-18T08:32:19.173Z,100
2022-09-18T08:33:26.322Z,100
2022-09-18T08:34:33.376Z,100
2022-09-18T08:35:39.979Z,100
2022-09-18T08:36:47.049Z,100
2022-09-18T08:37:54.115Z,100
2022-09-18T08:40:08.526Z,100
2022-09-18T08:42:25.930Z,100
2022-09-18T08:43:29.186Z,100
2022-09-18T08:44:36.287Z,100
2022-09-18T08:45:43.503Z,100
2022-09-18T08:46:50.064Z,100
2022-09-18T08:47:57.101Z,100
2022-09-18T08:49:04.176Z,100
2022-09-18T08:50:11.322Z,100
2022-09-18T08:51:18.402Z,100
2022-09-18T08:52:24.967Z,100
2022-09-18T08:53:32.101Z,100
2022-09-18T08:54:39.214Z,100
2022-09-18T08:56:52.917Z,100
2022-09-18T08:57:59.963Z,100
2022-09-18T08:59:08.144Z,100
2022-09-18T09:00:14.280Z,100
2022-09-18T09:01:21.430Z,100
2022-09-18T09:02:27.993Z,100
2022-09-18T09:03:35.031Z,100
2022-09-18T09:04:42.142Z,100
2022-09-18T09:05:49.222Z,100
2022-09-18T09:06:56.331Z,100
2022-09-18T09:08:02.961Z,100
2022-09-18T09:09:14.938Z,100
2022-09-18T09:10:17.177Z,100
2022-09-18T09:11:24.216Z,100
2022-09-18T09:13:37.977Z,100
2022-09-18T09:14:57.282Z,100
2022-09-18T09:15:52.201Z,100
2022-09-18T09:16:59.244Z,100
2022-09-18T09:18:06.340Z,100
2022-09-18T09:19:12.974Z,100
2022-09-18T09:20:20.075Z,100
2022-09-18T09:21:27.135Z,100
2022-09-18T09:23:41.360Z,100
2022-09-18T09:24:47.948Z,100
2022-09-18T09:25:55.069Z,100
2022-09-18T09:27:02.173Z,100
2022-09-18T09:28:11.380Z,100
2022-09-18T09:29:16.393Z,100
2022-09-18T09:30:22.940Z,100
2022-09-18T09:31:30.079Z,100
2022-09-18T09:32:37.114Z,100
2022-09-18T09:33:44.243Z,100
2022-09-18T09:34:51.505Z,100
2022-09-18T09:35:57.970Z,100
2022-09-18T09:37:05.152Z,100
2022-09-18T09:38:12.166Z,100
2022-09-18T09:39:19.272Z,100
2022-09-18T09:40:27.798Z,100
2022-09-18T09:41:32.930Z,100
2022-09-18T09:42:40.091Z,100
2022-09-18T09:43:47.181Z,100
2022-09-18T09:44:54.241Z,100
2022-09-18T09:46:01.507Z,99
2022-09-18T09:47:08.028Z,100
2022-09-18T09:48:15.100Z,100
2022-09-18T09:49:22.144Z,99
2022-09-18T09:50:29.378Z,99
2022-09-18T09:51:36.403Z,99
2022-09-18T09:52:43.013Z,99
2022-09-18T09:53:50.061Z,99
2022-09-18T09:54:57.148Z,99
2022-09-18T09:56:04.218Z,99
2022-09-18T09:57:11.434Z,99
2022-09-18T09:58:17.982Z,99
2022-09-18T09:59:25.102Z,99
2022-09-18T10:00:32.307Z,99
2022-09-18T10:01:39.380Z,99
2022-09-18T10:02:45.928Z,99
2022-09-18T10:05:00.139Z,99
2022-09-18T10:06:07.250Z,99
2022-09-18T10:08:20.908Z,99
2022-09-18T10:09:27.984Z,99
2022-09-18T10:10:35.116Z,99
2022-09-18T10:11:42.221Z,99
2022-09-18T10:12:49.327Z,99
2022-09-18T10:13:55.948Z,99
2022-09-18T10:15:03.001Z,99
2022-09-18T10:17:17.190Z,99
2022-09-18T10:18:24.305Z,99
2022-09-18T10:19:30.916Z,99
2022-09-18T10:20:38.016Z,99
2022-09-18T10:21:45.616Z,99
2022-09-18T10:22:52.233Z,99
2022-09-18T10:23:59.436Z,99
2022-09-18T10:25:05.974Z,99
2022-09-18T10:27:20.222Z,99
2022-09-18T10:28:27.228Z,99
2022-09-18T10:29:35.951Z,99
2022-09-18T10:30:40.919Z,99
2022-09-18T10:31:48.051Z,99
2022-09-18T10:32:55.221Z,98
2022-09-18T10:34:02.212Z,98
2022-09-18T10:35:09.309Z,98
2022-09-18T10:36:15.911Z,98
2022-09-18T10:37:23.023Z,98
2022-09-18T10:38:30.123Z,98
2022-09-18T10:39:37.295Z,98
2022-09-18T10:40:44.347Z,98
2022-09-18T10:46:19.013Z,98
2022-09-18T10:47:25.975Z,98
2022-09-18T10:48:33.017Z,98
2022-09-18T10:49:40.169Z,98
2022-09-18T10:50:47.269Z,98
2022-09-18T10:51:53.842Z,98
2022-09-18T10:53:00.904Z,98
2022-09-18T10:55:15.576Z,98
2022-09-18T10:56:22.285Z,98
2022-09-18T10:57:28.862Z,98
2022-09-18T10:58:35.950Z,98
2022-09-18T10:59:43.080Z,98
2022-09-18T11:00:50.284Z,96
2022-09-18T11:01:57.392Z,95
2022-09-18T11:03:04.878Z,95
2022-09-18T11:04:11.069Z,93
2022-09-18T11:05:18.079Z,93
2022-09-18T11:06:25.235Z,92
2022-09-18T11:07:32.300Z,92
2022-09-18T11:08:38.900Z,92
2022-09-18T11:09:45.933Z,92
2022-09-18T11:10:53.166Z,92
2022-09-18T11:12:00.142Z,92
2022-09-18T11:13:07.254Z,92
2022-09-18T11:14:14.382Z,92
2022-09-18T11:15:21.024Z,92
2022-09-18T11:16:28.217Z,92
2022-09-18T11:17:35.217Z,92
2022-09-18T11:18:42.280Z,91
2022-09-18T11:20:56.156Z,91
2022-09-18T11:23:10.224Z,91
2022-09-18T11:24:17.267Z,91
2022-09-18T11:25:23.952Z,91
2022-09-18T11:26:31.047Z,91
2022-09-18T11:27:38.115Z,91
2022-09-18T11:28:45.229Z,91
2022-09-18T11:29:52.286Z,91
2022-09-18T11:30:58.915Z,91
2022-09-18T11:32:06.196Z,91
2022-09-18T11:33:13.762Z,91
2022-09-18T11:34:20.215Z,91
2022-09-18T11:36:33.900Z,90
2022-09-18T11:37:41.024Z,90
2022-09-18T11:38:51.122Z,90
2022-09-18T11:39:55.287Z,90
2022-09-18T11:41:02.291Z,90
2022-09-18T11:42:08.927Z,90
2022-09-18T11:43:16.083Z,89
2022-09-18T11:44:23.633Z,89
2022-09-18T11:45:30.205Z,89
2022-09-18T11:46:37.322Z,89
2022-09-18T11:47:43.934Z,89
2022-09-18T11:48:51.075Z,89
2022-09-18T11:49:58.137Z,89
2022-09-18T11:51:05.258Z,89
2022-09-18T11:52:11.839Z,89
2022-09-18T11:53:18.983Z,89
2022-09-18T11:54:26.049Z,89
2022-09-18T11:55:33.112Z,89
2022-09-18T11:56:39.730Z,89
2022-09-18T11:57:46.860Z,89
2022-09-18T11:58:53.933Z,89
2022-09-18T12:00:01.127Z,89
2022-09-18T12:01:14.604Z,89
2022-09-18T12:02:15.330Z,89
2022-09-18T12:03:21.978Z,89
2022-09-18T12:04:28.949Z,89
2022-09-18T12:05:36.096Z,89
2022-09-18T12:06:43.113Z,89
2022-09-18T12:08:55.535Z,89
2022-09-18T12:10:02.568Z,89
2022-09-18T12:11:11.123Z,89
2022-09-18T12:12:17.336Z,89
2022-09-18T12:13:23.879Z,89
2022-09-18T12:14:30.524Z,89
2022-09-18T12:15:37.608Z,89
2022-09-18T12:16:46.007Z,89
2022-09-18T12:17:51.765Z,89
2022-09-18T12:18:58.874Z,89
2022-09-18T12:20:05.521Z,89
2022-09-18T12:21:12.527Z,89
2022-09-18T12:22:19.735Z,89
2022-09-18T12:24:33.375Z,89
2022-09-18T12:25:41.548Z,89
2022-09-18T12:26:47.564Z,88
2022-09-18T12:27:54.756Z,88
2022-09-18T12:29:01.768Z,88
2022-09-18T12:30:08.880Z,88
2022-09-18T12:31:15.584Z,88
2022-09-18T12:32:22.593Z,88
2022-09-18T12:33:33.958Z,88
2022-09-18T12:34:36.786Z,88
2022-09-18T12:35:43.923Z,88
2022-09-18T12:36:50.507Z,88
2022-09-18T12:37:57.626Z,88
2022-09-18T12:39:05.407Z,88
2022-09-18T12:40:12.476Z,88
2022-09-18T12:41:19.603Z,88
2022-09-18T12:42:26.145Z,88
2022-09-18T12:43:33.274Z,88
2022-09-18T12:44:40.417Z,88
2022-09-18T12:45:47.485Z,88
2022-09-18T12:46:56.861Z,88
2022-09-18T12:48:01.190Z,88
2022-09-18T12:49:08.233Z,88
2022-09-18T12:50:15.382Z,88
2022-09-18T12:51:22.455Z,87
2022-09-18T12:53:36.199Z,87
2022-09-18T12:54:43.218Z,88
2022-09-18T12:55:50.514Z,87
2022-09-18T12:56:57.459Z,88
2022-09-18T12:58:04.099Z,88
2022-09-18T12:59:11.144Z,88
2022-09-18T13:00:18.305Z,88
2022-09-18T13:01:25.478Z,88
2022-09-18T13:02:32.499Z,88
2022-09-18T13:04:46.235Z,88
2022-09-18T13:05:53.290Z,88
2022-09-18T13:07:00.859Z,87
2022-09-18T13:08:07.489Z,88
2022-09-18T13:09:14.087Z,87
2022-09-18T13:10:21.192Z,88
2022-09-18T13:11:28.294Z,88
2022-09-18T13:12:35.421Z,88
2022-09-18T13:13:42.555Z,88
2022-09-18T13:14:49.626Z,88
2022-09-18T13:15:56.221Z,88
2022-09-18T13:17:04.009Z,88
2022-09-18T13:18:11.155Z,88
2022-09-18T13:19:18.395Z,88
2022-09-18T13:21:31.934Z,88
2022-09-18T13:22:39.043Z,88
2022-09-18T13:23:46.435Z,88
2022-09-18T13:24:53.305Z,88
2022-09-18T13:25:59.808Z,88
2022-09-18T13:28:14.035Z,88
2022-09-18T13:29:21.159Z,88
2022-09-18T13:30:28.347Z,88
2022-09-18T13:31:34.850Z,88
2022-09-18T13:32:41.921Z,88
2022-09-18T13:33:49.049Z,88
2022-09-18T13:34:56.106Z,88
2022-09-18T13:36:03.398Z,88
2022-09-18T13:37:09.834Z,88
2022-09-18T13:38:16.931Z,88
2022-09-18T13:39:24.077Z,88
2022-09-18T13:40:31.726Z,88
2022-09-18T13:41:38.287Z,88
2022-09-18T13:42:44.843Z,88
2022-09-18T13:43:52.015Z,88
2022-09-18T13:44:59.010Z,88
2022-09-18T13:46:07.010Z,88
2022-09-18T13:47:12.712Z,88
2022-09-18T13:49:26.968Z,88
2022-09-18T13:50:34.036Z,88
2022-09-18T13:51:41.128Z,88
2022-09-18T13:52:47.739Z,88
2022-09-18T13:53:54.855Z,88
2022-09-18T13:55:02.479Z,88
2022-09-18T13:56:09.051Z,88
2022-09-18T13:57:16.194Z,88
2022-09-18T13:58:22.727Z,88
2022-09-18T13:59:29.821Z,88
2022-09-18T14:00:36.991Z,88
2022-09-18T14:01:44.080Z,88
2022-09-18T14:02:51.184Z,88
2022-09-18T14:03:58.265Z,87
2022-09-18T14:05:04.955Z,87
2022-09-18T14:06:11.992Z,87
2022-09-18T14:07:19.038Z,87
2022-09-18T14:08:26.147Z,87
2022-09-18T14:09:32.691Z,87
2022-09-18T14:10:39.883Z,87
2022-09-18T14:11:47.026Z,87
2022-09-18T14:12:54.071Z,87
2022-09-18T14:14:01.177Z,87
2022-09-18T14:15:07.787Z,87
2022-09-18T14:16:14.980Z,87
2022-09-18T14:17:21.961Z,87
2022-09-18T14:18:29.096Z,86
2022-09-18T14:19:36.200Z,86
2022-09-18T14:20:42.904Z,86
2022-09-18T14:21:49.912Z,86
2022-09-18T14:22:57.004Z,86
2022-09-18T14:24:04.067Z,86
2022-09-18T14:25:11.235Z,86
2022-09-18T14:26:18.619Z,86
2022-09-18T14:27:24.963Z,86
2022-09-18T14:28:31.969Z,86
2022-09-18T14:32:59.868Z,86
2022-09-18T14:34:06.950Z,85
2022-09-18T14:35:14.041Z,85
2022-09-18T14:36:21.163Z,85
2022-09-18T14:37:27.821Z,85
2022-09-18T14:38:34.933Z,85
2022-09-18T14:39:41.966Z,85
2022-09-18T14:40:49.115Z,85
2022-09-18T14:41:56.275Z,85
2022-09-18T14:43:02.822Z,84
2022-09-18T14:44:09.928Z,84
2022-09-18T14:45:17.022Z,84
2022-09-18T14:46:24.102Z,84
2022-09-18T14:47:30.714Z,84
2022-09-18T14:48:37.826Z,84
2022-09-18T14:49:44.941Z,84
2022-09-18T14:52:03.654Z,84
2022-09-18T14:53:06.253Z,84
2022-09-18T14:54:12.861Z,84
2022-09-18T14:55:19.894Z,84
2022-09-18T14:56:27.075Z,84
2022-09-18T14:57:34.088Z,84
2022-09-18T14:58:40.683Z,84
2022-09-18T14:59:47.780Z,84
2022-09-18T15:00:55.046Z,84
2022-09-18T15:02:02.034Z,84
2022-09-18T15:03:09.121Z,83
2022-09-18T15:04:15.786Z,83
2022-09-18T15:05:22.849Z,83
2022-09-18T15:06:29.966Z,83
2022-09-18T15:07:37.074Z,83
2022-09-18T15:08:44.697Z,83
2022-09-18T15:09:50.809Z,83
2022-09-18T15:12:05.032Z,83
2022-09-18T15:13:12.065Z,83
2022-09-18T15:14:19.169Z,83
2022-09-18T15:15:25.788Z,83
2022-09-18T15:16:32.998Z,83
2022-09-18T15:17:39.922Z,83
2022-09-18T15:19:54.192Z,83
2022-09-18T15:21:00.766Z,83
2022-09-18T15:22:07.848Z,83
2022-09-18T15:23:14.997Z,83
2022-09-18T15:24:22.056Z,83
2022-09-18T15:25:29.238Z,83
2022-09-18T15:26:35.743Z,82
2022-09-18T15:27:42.914Z,82
2022-09-18T15:28:50.874Z,82
2022-09-18T15:29:57.106Z,82
2022-09-18T15:31:04.226Z,82
2022-09-18T15:32:10.844Z,82
2022-09-18T15:33:17.945Z,82
2022-09-18T15:35:32.083Z,82
2022-09-18T15:36:38.711Z,82
2022-09-18T15:37:45.841Z,82
2022-09-18T15:38:52.862Z,82
2022-09-18T15:40:00.114Z,82
2022-09-18T15:41:07.194Z,82
2022-09-18T15:42:14.296Z,82
2022-09-18T15:43:20.857Z,82
2022-09-18T15:44:27.892Z,82
2022-09-18T15:45:35.067Z,82
2022-09-18T15:47:48.693Z,82
2022-09-18T15:48:55.782Z,82
2022-09-18T15:50:02.934Z,82
2022-09-18T15:51:10.053Z,82
2022-09-18T15:53:23.743Z,82
2022-09-18T15:54:30.841Z,82
2022-09-18T15:55:37.917Z,82
2022-09-18T15:56:45.051Z,82
2022-09-18T15:57:52.193Z,82
2022-09-18T15:58:58.749Z,82
2022-09-18T16:01:13.011Z,82
2022-09-18T16:02:20.101Z,82
2022-09-18T16:03:27.176Z,82
2022-09-18T16:04:33.739Z,82
2022-09-18T16:05:40.806Z,81
2022-09-18T16:06:47.926Z,81
2022-09-18T16:07:55.242Z,81
2022-09-18T16:09:02.180Z,81
2022-09-18T16:10:08.738Z,81
2022-09-18T16:11:15.785Z,81
2022-09-18T16:12:22.964Z,81
2022-09-18T16:13:30.049Z,81
2022-09-18T16:14:37.215Z,81
2022-09-18T16:15:43.772Z,81
2022-09-18T16:16:50.822Z,81
2022-09-18T16:17:57.946Z,81
2022-09-18T16:19:05.058Z,81
2022-09-18T16:20:12.190Z,81
2022-09-18T16:21:19.816Z,81
2022-09-18T16:22:25.859Z,81
2022-09-18T16:23:33.023Z,81
2022-09-18T16:24:40.009Z,81
2022-09-18T16:25:47.211Z,81
2022-09-18T16:26:53.782Z,81
2022-09-18T16:28:00.833Z,81
2022-09-18T16:29:07.988Z,81
2022-09-18T16:30:15.089Z,81
2022-09-18T16:31:22.270Z,81
2022-09-18T16:32:28.811Z,81
2022-09-18T16:34:43.017Z,81
2022-09-18T16:35:50.098Z,81
2022-09-18T16:36:57.734Z,81
2022-09-18T16:39:10.925Z,81
2022-09-18T16:40:18.026Z,81
2022-09-18T16:41:25.171Z,81
2022-09-18T16:42:31.690Z,81
2022-09-18T16:43:38.761Z,81
2022-09-18T16:44:45.918Z,81
2022-09-18T16:45:53.026Z,81
2022-09-18T16:47:00.175Z,81
2022-09-18T16:48:06.661Z,81
2022-09-18T16:49:13.852Z,81
2022-09-18T16:50:20.888Z,81
2022-09-18T16:51:27.979Z,81
2022-09-18T16:52:35.148Z,81
2022-09-18T16:53:42.183Z,81
2022-09-18T16:54:48.841Z,81
2022-09-18T16:55:55.866Z,81
2022-09-18T16:57:03.027Z,81
2022-09-18T16:58:10.153Z,81
2022-09-18T16:59:17.236Z,81
2022-09-18T17:00:23.820Z,81
2022-09-18T17:01:39.630Z,81
2022-09-18T17:02:38.106Z,81
2022-09-18T17:03:45.128Z,81
2022-09-18T17:04:51.687Z,81
2022-09-18T17:05:58.839Z,81
2022-09-18T17:07:05.936Z,81
2022-09-18T17:08:13.029Z,81
2022-09-18T17:09:20.207Z,81
2022-09-18T17:10:26.707Z,81